Meteo Giornale » Osservazioni meteo Stati Uniti (USA) » Altoona-Blair
ore: 23:53 - Osservazioni Meteo Altoona-Blair
Lat. 40° 18' N Lon. 78° 19' W Alt. 458 metri s.l.m.
21 °C
Sereno
Temp. 24 Ore
18 °C
26 °C
Nord
5.5 Km/h
Dew point 20 °C
Umidità 94 %
Visibilità 13 Km
Il sole sorge alle ore 06:41
Il sole tramonta alle ore 19:45
| Data e Ora | Cielo e Fenomeni | T °C | DP °C | Um. % | Pres. hPa | Vis. km | Vento km/h | |
|---|---|---|---|---|---|---|---|---|
| Ieri h: 23:53 | Sereno | 21 | 20 | 94 | 1019 | 13 | N 5.5 | |
| Ieri h: 22:53 | Coperto | 22 | 20 | 88 | 1019 | 10 | S/SO 7.4 | |
| Ieri h: 21:53 | Molto Nuvoloso | 22 | 21 | 94 | 1020 | 14 | S/SO 7.4 | |
| Ieri h: 20:53 | Molto Nuvoloso | 22 | 21 | 94 | 1019 | 14 | N 0 | |
| Ieri h: 19:53 | Sereno | 23 | 21 | 88 | 1019 | 10 | S/SO 7.4 | |
| Ieri h: 18:53 | Poco Nuvoloso | 25 | 22 | 83 | 1019 | 10 | N 5.5 | |
| Ieri h: 17:53 | Molto Nuvoloso | 24 | 22 | 88 | 1019 | 10 | N 0 | |
| Ieri h: 16:53 | Molto Nuvoloso | 26 | 21 | 73 | 1020 | 10 | S 9.3 | |
| Ieri h: 15:53 | Sereno | 26 | 21 | 73 | 1020 | 10 | S/SE 7.4 | |
| Ieri h: 14:53 | Pioggia | 24 | 21 | 83 | 1020 | 14 | S/SO 7.4 | |
| Ieri h: 13:53 | Nuvoloso | 25 | 20 | 73 | 1021 | 10 | S 9.3 | |
| Ieri h: 12:53 | Sereno | 24 | 19 | 73 | 1021 | 10 | N 9.3 | |
| Ieri h: 11:53 | Nuvoloso | 24 | 19 | 73 | 1021 | 10 | N 5.5 | |
| Ieri h: 10:53 | Molto Nuvoloso | 23 | 19 | 78 | 1022 | 10 | N 0 | |
| Ieri h: 09:53 | Foschia | 21 | 19 | 88 | 1022 | 10 | N 0 | |
| Ieri h: 08:53 | Foschia | 20 | 19 | 93 | 1022 | 8 | N 0 | |
| Ieri h: 08:19 | Foschia | 19 | 19 | 100 | 1022 | 5 | N 0 | |
| Ieri h: 08:07 | Foschia | 19 | 19 | 100 | 1022 | 5 | N 0 | |
| Ieri h: 07:58 | Foschia | 19 | 19 | 100 | 1021 | 3 | N 0 | |
| Ieri h: 07:53 | Foschia | 19 | 19 | 100 | 1021 | 5 | N 0 | |
| Ieri h: 06:53 | Foschia | 18 | 18 | 100 | 1021 | 5 | N 0 | |
| Ieri h: 06:36 | Foschia | 18 | 18 | 100 | 1021 | 3 | N 0 | |
| Ieri h: 06:26 | Foschia | 18 | 18 | 100 | 1021 | 5 | N 0 | |
| Ieri h: 06:09 | Foschia | 18 | 18 | 100 | 1021 | 2 | N 0 | |
| Ieri h: 06:02 | Pioggia Foschia | 18 | 18 | 100 | 1021 | 5 | N 0 | |
| Ieri h: 05:53 | Pioggia Foschia | 18 | 18 | 100 | 1021 | 3 | N 5.5 | |
| Ieri h: 05:51 | Pioggia Foschia | 18 | 18 | 100 | 1021 | 3 | N 0 | |
| Ieri h: 05:39 | Pioggia Foschia | 18 | 18 | 100 | 1021 | 5 | N 0 | |
| Ieri h: 05:06 | Pioggia Foschia | 18 | 18 | 100 | 1020 | 2 | N 0 | |
| Ieri h: 04:53 | Pioggia Foschia | 18 | 18 | 100 | 1020 | 5 | N 0 | |
| Ieri h: 04:41 | Foschia | 18 | 18 | 100 | 1020 | 5 | N 0 | |
| Ieri h: 04:33 | Foschia | 18 | 18 | 100 | 1020 | 2 | N 0 | |
| Ieri h: 04:24 | Foschia | 18 | 18 | 100 | 1020 | 5 | N 0 | |
| Ieri h: 04:18 | Foschia | 18 | 18 | 100 | 1020 | 2 | N 5.5 | |
| Ieri h: 04:10 | Foschia | 18 | 18 | 100 | 1020 | 5 | N 5.5 | |
| Ieri h: 03:53 | Foschia | 18 | 18 | 100 | 1020 | 5 | N 0 | |
| Ieri h: 03:21 | Foschia | 18 | 17 | 93 | 1020 | 2 | N 5.5 | |
| Ieri h: 02:53 | Foschia | 18 | 17 | 93 | 1020 | 6 | N 0 | |
| Ieri h: 01:53 | Foschia | 18 | 18 | 100 | 1021 | 5 | N 5.5 | |
| Ieri h: 00:53 | Molto Nuvoloso | 19 | 18 | 93 | 1021 | 13 | N 0 | |



